Time;durP1;ratioP1;P1;durP2;ratioP2;P2;SDS_P1;SDS_P2;PMS_P1;PMS_P2;Temp;Humidity;BMP_temperature;BMP_pressure;BME280_temperature;BME280_humidity;BME280_pressure;Samples;Min_cycle;Max_cycle;Signal;HPM_P1;HPM_P2
2023/04/12 00:00:31;;;;;;;;;;;10.90;99.90;;;;;;5050764;28;19925;-81
2023/04/12 00:03:01;;;;;;;;;;;10.90;99.90;;;;;;5048142;28;19950;-80
2023/04/12 00:05:29;;;;;;;;;;;10.90;99.90;;;;;;5052904;28;19929;-81
2023/04/12 00:07:59;;;;;;;;;;;11.00;99.90;;;;;;5074517;28;19925;-81
2023/04/12 00:10:29;;;;;;;;;;;10.90;99.90;;;;;;5052760;28;19972;-81
2023/04/12 00:12:56;;;;;;;;;;;10.90;99.90;;;;;;5053433;28;20522;-79
2023/04/12 00:15:24;;;;;;;;;;;10.80;99.90;;;;;;5054037;28;19929;-81
2023/04/12 00:17:51;;;;;;;;;;;10.70;99.90;;;;;;5052897;28;19955;-81
2023/04/12 00:20:18;;;;;;;;;;;10.60;99.90;;;;;;5037658;28;19925;-81
2023/04/12 00:22:45;;;;;;;;;;;10.50;99.90;;;;;;5052676;28;19936;-78
2023/04/12 00:25:13;;;;;;;;;;;10.40;99.90;;;;;;5057970;28;19932;-80
2023/04/12 00:27:39;;;;;;;;;;;10.40;99.90;;;;;;5055903;28;20296;-80
2023/04/12 00:30:07;;;;;;;;;;;10.30;99.90;;;;;;5046519;28;20015;-80
2023/04/12 00:32:36;;;;;;;;;;;10.30;99.90;;;;;;5054542;28;19929;-80
2023/04/12 00:35:03;;;;;;;;;;;10.20;99.90;;;;;;5036380;28;19983;-80
2023/04/12 00:37:30;;;;;;;;;;;10.20;99.90;;;;;;5039209;28;19975;-81
2023/04/12 00:39:57;;;;;;;;;;;10.10;99.90;;;;;;5052707;28;19973;-80
2023/04/12 00:42:26;;;;;;;;;;;10.10;99.90;;;;;;5057165;28;19928;-79
2023/04/12 00:44:53;;;;;;;;;;;10.00;99.90;;;;;;5056771;28;19929;-79
2023/04/12 00:47:24;;;;;;;;;;;10.00;99.90;;;;;;5056469;28;20395;-78
2023/04/12 00:49:53;;;;;;;;;;;9.90;99.90;;;;;;5055291;28;19939;-79
2023/04/12 00:52:21;;;;;;;;;;;9.90;99.90;;;;;;5057095;28;19990;-78
2023/04/12 00:54:48;;;;;;;;;;;9.80;99.90;;;;;;5051640;28;19925;-80
2023/04/12 00:57:15;;;;;;;;;;;9.80;99.90;;;;;;5051806;28;19928;-79
2023/04/12 00:59:41;;;;;;;;;;;9.70;99.90;;;;;;5045101;28;19960;-78
2023/04/12 01:02:09;;;;;;;;;;;9.70;99.90;;;;;;5048322;28;19929;-79
2023/04/12 01:04:36;;;;;;;;;;;9.70;99.90;;;;;;5056647;28;19933;-80
2023/04/12 01:07:14;;;;;;;;;;;9.60;99.90;;;;;;5042507;28;20500;-78
2023/04/12 01:09:48;;;;;;;;;;;9.60;99.90;;;;;;5049583;28;20008;-78
2023/04/12 01:12:20;;;;;;;;;;;9.60;99.90;;;;;;5044252;28;19929;-79
2023/04/12 01:14:51;;;;;;;;;;;9.50;99.90;;;;;;5043808;28;19957;-78
2023/04/12 01:17:23;;;;;;;;;;;9.50;99.90;;;;;;5042988;28;19929;-79
2023/04/12 01:19:56;;;;;;;;;;;9.50;99.90;;;;;;5038505;28;19929;-79
2023/04/12 01:22:38;;;;;;;;;;;9.50;99.90;;;;;;5038632;28;19933;-77
2023/04/12 01:25:22;;;;;;;;;;;9.50;99.90;;;;;;5027760;28;19936;-77
2023/04/12 01:27:53;;;;;;;;;;;9.40;99.90;;;;;;5041400;28;19936;-77
2023/04/12 01:30:20;;;;;;;;;;;9.40;99.90;;;;;;5046789;28;19925;-77
2023/04/12 01:32:49;;;;;;;;;;;9.40;99.90;;;;;;5048176;28;19928;-77
2023/04/12 01:35:17;;;;;;;;;;;9.40;99.90;;;;;;5052752;28;20654;-77
2023/04/12 01:37:44;;;;;;;;;;;9.40;99.90;;;;;;5044327;28;19991;-77
2023/04/12 01:40:12;;;;;;;;;;;9.30;99.90;;;;;;5044869;28;19947;-78
2023/04/12 01:42:39;;;;;;;;;;;9.30;99.90;;;;;;5055682;28;19933;-76
2023/04/12 01:45:08;;;;;;;;;;;9.30;99.90;;;;;;5054324;28;19925;-78
2023/04/12 01:47:36;;;;;;;;;;;9.20;99.90;;;;;;5055938;28;19979;-78
2023/04/12 01:50:12;;;;;;;;;;;9.20;99.90;;;;;;5053970;28;20376;-78
2023/04/12 01:52:42;;;;;;;;;;;9.10;99.90;;;;;;5053527;28;19935;-78
2023/04/12 01:55:09;;;;;;;;;;;9.10;99.90;;;;;;5047769;28;19936;-78
2023/04/12 01:57:38;;;;;;;;;;;9.00;99.90;;;;;;5054886;28;20396;-77
2023/04/12 02:00:06;;;;;;;;;;;9.00;99.90;;;;;;5053566;28;20602;-78
2023/04/12 02:02:42;;;;;;;;;;;8.90;99.90;;;;;;5052453;28;19924;-79
2023/04/12 02:05:09;;;;;;;;;;;8.90;99.90;;;;;;5041436;28;19925;-79
2023/04/12 02:07:37;;;;;;;;;;;8.90;99.90;;;;;;5034184;28;19935;-79
2023/04/12 02:10:04;;;;;;;;;;;8.80;99.90;;;;;;5034396;28;20530;-78
2023/04/12 02:12:31;;;;;;;;;;;8.80;99.90;;;;;;5036503;28;20426;-79
2023/04/12 02:14:59;;;;;;;;;;;8.80;99.90;;;;;;5041021;28;19929;-79
2023/04/12 02:17:26;;;;;;;;;;;8.70;99.90;;;;;;5040143;28;20027;-79
2023/04/12 02:19:56;;;;;;;;;;;8.70;99.90;;;;;;5056810;28;19952;-79
2023/04/12 02:22:24;;;;;;;;;;;8.70;99.90;;;;;;5057599;28;19979;-78
2023/04/12 02:24:51;;;;;;;;;;;8.60;99.90;;;;;;5055380;28;19935;-79
2023/04/12 02:27:18;;;;;;;;;;;8.60;99.90;;;;;;5044803;28;19929;-77
2023/04/12 02:29:45;;;;;;;;;;;8.60;99.90;;;;;;5039388;28;19924;-76
2023/04/12 02:32:12;;;;;;;;;;;8.60;99.90;;;;;;5029402;28;19967;-77
2023/04/12 02:34:39;;;;;;;;;;;8.60;99.90;;;;;;5031734;28;19971;-77
2023/04/12 02:37:16;;;;;;;;;;;8.60;99.90;;;;;;5033587;28;19925;-76
2023/04/12 02:39:49;;;;;;;;;;;8.60;99.90;;;;;;5037384;28;19929;-80
2023/04/12 02:42:16;;;;;;;;;;;8.60;99.90;;;;;;5039710;28;19925;-80
2023/04/12 02:44:47;;;;;;;;;;;8.60;99.90;;;;;;5045023;28;19995;-79
2023/04/12 02:47:14;;;;;;;;;;;8.60;99.90;;;;;;5056248;28;19940;-79
2023/04/12 02:49:45;;;;;;;;;;;8.60;99.90;;;;;;5042439;28;20004;-78
2023/04/12 02:52:14;;;;;;;;;;;8.60;99.90;;;;;;5036790;28;19952;-77
2023/04/12 02:54:58;;;;;;;;;;;8.60;99.90;;;;;;5037060;28;19928;-81
2023/04/12 02:57:25;;;;;;;;;;;8.60;99.90;;;;;;5046657;28;19959;-81
2023/04/12 02:59:53;;;;;;;;;;;8.60;99.90;;;;;;5044117;28;19972;-78
2023/04/12 03:02:23;;;;;;;;;;;8.50;99.90;;;;;;5041712;28;19928;-79
2023/04/12 03:04:53;;;;;;;;;;;8.50;99.90;;;;;;5048477;28;20627;-79
2023/04/12 03:07:26;;;;;;;;;;;8.50;99.90;;;;;;5049958;28;19991;-79
2023/04/12 03:09:54;;;;;;;;;;;8.40;99.90;;;;;;5045627;28;19980;-79
2023/04/12 03:12:25;;;;;;;;;;;8.40;99.90;;;;;;5048112;28;20261;-80
2023/04/12 03:15:14;;;;;;;;;;;8.40;99.90;;;;;;5046991;28;19929;-79
2023/04/12 03:17:44;;;;;;;;;;;8.40;99.90;;;;;;5064793;28;19929;-79
2023/04/12 03:20:13;;;;;;;;;;;8.30;99.90;;;;;;5066312;28;21089;-80
2023/04/12 03:22:46;;;;;;;;;;;8.30;99.90;;;;;;5049904;28;19939;-80
2023/04/12 03:25:14;;;;;;;;;;;8.30;99.90;;;;;;5037210;28;19928;-80
2023/04/12 03:27:50;;;;;;;;;;;8.30;99.90;;;;;;5048747;28;20483;-80
2023/04/12 03:30:20;;;;;;;;;;;8.30;99.90;;;;;;5044216;28;19960;-80
2023/04/12 03:32:48;;;;;;;;;;;8.40;99.90;;;;;;5048303;28;19929;-79
2023/04/12 03:35:15;;;;;;;;;;;8.40;99.90;;;;;;5042732;28;19929;-79
2023/04/12 03:37:43;;;;;;;;;;;8.40;99.90;;;;;;5043274;28;19940;-78
2023/04/12 03:40:11;;;;;;;;;;;8.50;99.90;;;;;;5039007;28;19968;-77
2023/04/12 03:42:42;;;;;;;;;;;8.50;99.90;;;;;;5037967;28;19933;-77
2023/04/12 03:45:13;;;;;;;;;;;8.50;99.90;;;;;;5044103;28;19932;-79
2023/04/12 03:47:44;;;;;;;;;;;8.50;99.90;;;;;;5040245;28;19968;-78
2023/04/12 03:50:11;;;;;;;;;;;8.60;99.90;;;;;;5044346;28;19988;-79
2023/04/12 03:52:40;;;;;;;;;;;8.60;99.90;;;;;;5048681;28;19929;-80
2023/04/12 03:55:07;;;;;;;;;;;8.60;99.90;;;;;;5046658;28;19951;-80
2023/04/12 03:57:36;;;;;;;;;;;8.60;99.90;;;;;;5050069;28;19928;-81
2023/04/12 04:00:07;;;;;;;;;;;8.60;99.90;;;;;;5053714;28;19929;-81
2023/04/12 04:02:47;;;;;;;;;;;8.60;99.90;;;;;;5055429;28;19925;-81
2023/04/12 04:05:15;;;;;;;;;;;8.60;99.90;;;;;;5045163;28;20035;-81
2023/04/12 04:07:44;;;;;;;;;;;8.60;99.90;;;;;;5037912;28;19975;-80
2023/04/12 04:10:12;;;;;;;;;;;8.60;99.90;;;;;;5051142;28;19929;-81
2023/04/12 04:12:41;;;;;;;;;;;8.60;99.90;;;;;;5049803;28;19923;-80
2023/04/12 04:15:11;;;;;;;;;;;8.70;99.90;;;;;;5051874;28;19988;-80
2023/04/12 04:17:39;;;;;;;;;;;8.70;99.90;;;;;;5047950;28;19961;-81
2023/04/12 04:20:11;;;;;;;;;;;8.70;99.90;;;;;;5050264;28;19925;-81
2023/04/12 04:22:41;;;;;;;;;;;8.70;99.90;;;;;;5049896;28;20023;-81
2023/04/12 04:25:09;;;;;;;;;;;8.70;99.90;;;;;;5050073;28;19925;-80
2023/04/12 04:27:39;;;;;;;;;;;8.70;99.90;;;;;;5044770;28;19982;-80
2023/04/12 04:30:09;;;;;;;;;;;8.80;99.90;;;;;;5048695;28;19983;-80
2023/04/12 04:32:38;;;;;;;;;;;8.80;99.90;;;;;;5046188;28;19983;-81
2023/04/12 04:35:06;;;;;;;;;;;8.80;99.90;;;;;;5046113;28;19929;-80
2023/04/12 04:37:45;;;;;;;;;;;8.80;99.90;;;;;;5044736;28;20000;-81
2023/04/12 04:40:15;;;;;;;;;;;8.80;99.90;;;;;;5051055;28;20424;-82
2023/04/12 04:42:45;;;;;;;;;;;8.80;99.90;;;;;;5071102;28;19971;-81
2023/04/12 04:45:13;;;;;;;;;;;8.80;99.90;;;;;;5052008;28;19936;-81
2023/04/12 04:47:43;;;;;;;;;;;8.80;99.90;;;;;;5054952;28;19925;-80
2023/04/12 04:50:16;;;;;;;;;;;8.80;99.90;;;;;;5049064;28;19928;-82
2023/04/12 04:52:48;;;;;;;;;;;8.80;99.90;;;;;;5053492;28;20658;-82
2023/04/12 04:55:16;;;;;;;;;;;8.80;99.90;;;;;;5051614;28;19937;-82
2023/04/12 04:57:45;;;;;;;;;;;8.80;99.90;;;;;;5067840;28;20002;-81
2023/04/12 05:00:15;;;;;;;;;;;8.70;99.90;;;;;;5054471;28;19993;-82
2023/04/12 05:02:46;;;;;;;;;;;8.70;99.90;;;;;;5053832;28;19952;-81
2023/04/12 05:05:22;;;;;;;;;;;8.60;99.90;;;;;;5055010;28;19913;-81
2023/04/12 05:07:51;;;;;;;;;;;8.50;99.90;;;;;;5053059;28;20425;-81
2023/04/12 05:10:20;;;;;;;;;;;8.50;99.90;;;;;;5053303;28;19928;-80
2023/04/12 05:12:47;;;;;;;;;;;8.40;99.90;;;;;;5049208;28;20451;-80
2023/04/12 05:15:15;;;;;;;;;;;8.40;99.90;;;;;;5052318;28;19952;-81
2023/04/12 05:17:42;;;;;;;;;;;8.40;99.90;;;;;;5053098;28;19925;-81
2023/04/12 05:20:10;;;;;;;;;;;8.40;99.90;;;;;;5051578;28;19968;-81
2023/04/12 05:22:39;;;;;;;;;;;8.40;99.90;;;;;;5054219;28;20032;-80
2023/04/12 05:25:10;;;;;;;;;;;8.40;99.90;;;;;;5052641;28;19929;-80
2023/04/12 05:27:44;;;;;;;;;;;8.30;99.90;;;;;;5071628;28;20392;-82
2023/04/12 05:30:14;;;;;;;;;;;8.30;99.90;;;;;;5055901;28;20359;-80
2023/04/12 05:32:42;;;;;;;;;;;8.30;99.90;;;;;;5063152;28;19913;-80
2023/04/12 05:35:09;;;;;;;;;;;8.30;99.90;;;;;;5064913;28;19967;-81
2023/04/12 05:37:40;;;;;;;;;;;8.20;99.90;;;;;;5064903;28;19932;-80
2023/04/12 05:40:08;;;;;;;;;;;8.20;99.90;;;;;;5062410;28;20019;-80
2023/04/12 05:42:38;;;;;;;;;;;8.20;99.90;;;;;;5065087;28;20014;-80
2023/04/12 05:45:05;;;;;;;;;;;8.30;99.90;;;;;;5066279;28;19948;-81
2023/04/12 05:47:36;;;;;;;;;;;8.30;99.90;;;;;;5064258;28;20027;-80
2023/04/12 05:50:03;;;;;;;;;;;8.30;99.90;;;;;;5065232;28;20029;-79
2023/04/12 05:52:32;;;;;;;;;;;8.30;99.90;;;;;;5064468;28;19963;-80
2023/04/12 05:54:59;;;;;;;;;;;8.30;99.90;;;;;;5064883;28;19949;-80
2023/04/12 05:57:27;;;;;;;;;;;8.30;99.90;;;;;;5063403;28;19925;-79
2023/04/12 05:59:56;;;;;;;;;;;8.40;99.90;;;;;;5064008;28;19924;-79
2023/04/12 06:02:24;;;;;;;;;;;8.40;99.90;;;;;;5063926;28;19919;-79
2023/04/12 06:04:52;;;;;;;;;;;8.40;99.90;;;;;;5058391;28;19936;-79
2023/04/12 06:07:20;;;;;;;;;;;8.50;99.90;;;;;;5058130;28;20312;-79
2023/04/12 06:10:02;;;;;;;;;;;8.50;99.90;;;;;;5056477;28;20258;-80
2023/04/12 06:12:29;;;;;;;;;;;8.50;99.90;;;;;;5064658;28;19935;-79
2023/04/12 06:15:02;;;;;;;;;;;8.50;99.90;;;;;;5065438;28;19924;-80
2023/04/12 06:17:32;;;;;;;;;;;8.50;99.90;;;;;;5062668;28;19928;-83
2023/04/12 06:19:59;;;;;;;;;;;8.50;99.90;;;;;;5076060;28;19924;-82
2023/04/12 06:22:27;;;;;;;;;;;8.60;99.90;;;;;;5058571;28;19995;-83
2023/04/12 06:24:54;;;;;;;;;;;8.60;99.90;;;;;;5055314;28;19924;-80
2023/04/12 06:27:24;;;;;;;;;;;8.60;99.90;;;;;;5050323;28;19957;-80
2023/04/12 06:29:51;;;;;;;;;;;8.60;99.90;;;;;;5057023;28;19968;-82
2023/04/12 06:32:20;;;;;;;;;;;8.80;99.90;;;;;;5059216;28;20028;-83
2023/04/12 06:34:47;;;;;;;;;;;8.80;99.90;;;;;;5061613;28;20038;-85
2023/04/12 06:37:15;;;;;;;;;;;8.90;99.90;;;;;;5061612;28;19931;-83
2023/04/12 06:39:43;;;;;;;;;;;8.90;99.90;;;;;;5060589;28;19938;-81
2023/04/12 06:42:10;;;;;;;;;;;8.90;99.90;;;;;;5062036;28;19936;-83
2023/04/12 06:44:42;;;;;;;;;;;9.00;99.90;;;;;;5060505;28;19937;-82
2023/04/12 06:47:09;;;;;;;;;;;9.10;99.90;;;;;;5061709;28;19935;-83
2023/04/12 06:49:37;;;;;;;;;;;9.00;99.90;;;;;;5044478;28;19933;-83
2023/04/12 06:52:05;;;;;;;;;;;9.10;99.90;;;;;;5040492;28;19933;-80
2023/04/12 06:54:32;;;;;;;;;;;9.10;99.90;;;;;;5041196;28;19929;-80
2023/04/12 06:57:00;;;;;;;;;;;9.10;99.90;;;;;;5057268;28;19932;-80
2023/04/12 06:59:28;;;;;;;;;;;9.10;99.90;;;;;;5048199;28;20032;-80
2023/04/12 07:01:55;;;;;;;;;;;9.10;99.90;;;;;;5058123;28;19925;-81
2023/04/12 07:04:22;;;;;;;;;;;9.10;99.90;;;;;;5059692;28;19973;-81
2023/04/12 07:06:51;;;;;;;;;;;9.10;99.90;;;;;;5058564;28;19928;-82
2023/04/12 07:09:18;;;;;;;;;;;9.20;99.90;;;;;;5059648;28;19933;-81
2023/04/12 07:11:47;;;;;;;;;;;9.30;99.90;;;;;;5060031;28;19929;-81
2023/04/12 07:14:14;;;;;;;;;;;9.30;99.90;;;;;;5059394;28;19967;-82
2023/04/12 07:16:42;;;;;;;;;;;9.40;99.90;;;;;;5056890;28;19924;-82
2023/04/12 07:19:09;;;;;;;;;;;9.40;99.90;;;;;;5058061;28;19955;-82
2023/04/12 07:21:36;;;;;;;;;;;9.40;99.90;;;;;;5058090;28;20355;-82
2023/04/12 07:24:05;;;;;;;;;;;9.60;99.90;;;;;;5056980;28;19968;-80
2023/04/12 07:26:32;;;;;;;;;;;9.80;99.90;;;;;;5059535;28;19913;-80
2023/04/12 07:28:58;;;;;;;;;;;10.00;99.90;;;;;;5059578;28;19929;-80
2023/04/12 07:31:29;;;;;;;;;;;10.10;99.90;;;;;;5061832;28;19928;-81
2023/04/12 07:33:56;;;;;;;;;;;10.20;99.90;;;;;;5059486;28;20030;-81
2023/04/12 07:36:23;;;;;;;;;;;10.30;99.90;;;;;;5047283;28;19929;-77
2023/04/12 07:38:53;;;;;;;;;;;10.30;99.90;;;;;;5041542;28;20490;-78
2023/04/12 07:41:23;;;;;;;;;;;10.30;99.90;;;;;;5041142;28;20023;-79
2023/04/12 07:43:51;;;;;;;;;;;10.40;99.90;;;;;;5048976;28;19929;-79
2023/04/12 07:46:23;;;;;;;;;;;10.30;99.90;;;;;;5065671;28;19956;-80
2023/04/12 07:48:56;;;;;;;;;;;10.30;99.90;;;;;;5054459;28;19924;-82
2023/04/12 07:51:23;;;;;;;;;;;10.30;99.90;;;;;;5006897;28;19924;-82
2023/04/12 07:53:53;;;;;;;;;;;10.20;99.90;;;;;;5068188;28;20004;-83
2023/04/12 07:56:23;;;;;;;;;;;10.20;99.90;;;;;;5068557;28;20367;-81
2023/04/12 07:58:50;;;;;;;;;;;10.10;99.90;;;;;;5063068;28;19913;-81
2023/04/12 08:01:18;;;;;;;;;;;10.00;99.90;;;;;;5066605;28;19929;-82
2023/04/12 08:04:05;;;;;;;;;;;10.00;99.90;;;;;;5066946;28;19943;-81
2023/04/12 08:09:30;;;;;;;;;;;10.00;99.90;;;;;;5056224;28;19928;-80
2023/04/12 08:12:00;;;;;;;;;;;9.90;99.90;;;;;;5061459;28;19929;-80
2023/04/12 08:14:28;;;;;;;;;;;9.90;99.90;;;;;;5053332;28;19929;-80
2023/04/12 08:16:59;;;;;;;;;;;9.90;99.90;;;;;;5051510;28;19929;-77
2023/04/12 08:19:27;;;;;;;;;;;9.90;99.90;;;;;;5041240;28;19932;-78
2023/04/12 08:21:54;;;;;;;;;;;10.00;99.90;;;;;;5052035;28;19913;-79
2023/04/12 08:24:22;;;;;;;;;;;10.00;99.90;;;;;;5058799;28;19929;-80
2023/04/12 08:26:51;;;;;;;;;;;10.20;99.90;;;;;;5056693;28;19951;-79
2023/04/12 08:29:19;;;;;;;;;;;10.20;99.90;;;;;;5047457;28;19924;-80
2023/04/12 08:31:46;;;;;;;;;;;10.60;99.90;;;;;;5057000;28;19935;-78
2023/04/12 08:34:13;;;;;;;;;;;10.90;99.90;;;;;;5052371;28;20339;-81
2023/04/12 08:36:40;;;;;;;;;;;11.20;99.90;;;;;;5050655;28;20023;-77
2023/04/12 08:39:08;;;;;;;;;;;11.40;99.90;;;;;;5054455;28;20360;-78
2023/04/12 08:41:35;;;;;;;;;;;11.50;99.90;;;;;;5053944;28;19942;-76
2023/04/12 08:44:02;;;;;;;;;;;11.40;99.90;;;;;;5052963;28;19948;-76
2023/04/12 08:46:30;;;;;;;;;;;11.40;99.90;;;;;;5054117;28;19928;-76
2023/04/12 08:48:57;;;;;;;;;;;11.30;99.90;;;;;;5053575;28;19929;-76
2023/04/12 08:51:25;;;;;;;;;;;11.30;99.90;;;;;;5056526;28;19924;-76
2023/04/12 08:53:52;;;;;;;;;;;11.20;99.90;;;;;;5060047;28;20371;-76
2023/04/12 08:56:20;;;;;;;;;;;11.10;99.90;;;;;;5050319;28;19935;-83
2023/04/12 08:58:48;;;;;;;;;;;11.20;99.90;;;;;;5060912;28;19925;-84
2023/04/12 09:01:16;;;;;;;;;;;11.10;99.90;;;;;;5059137;28;21458;-83
2023/04/12 09:03:45;;;;;;;;;;;11.00;99.90;;;;;;5052197;28;19925;-84
2023/04/12 09:06:12;;;;;;;;;;;11.00;99.90;;;;;;5063848;28;19971;-82
2023/04/12 09:08:50;;;;;;;;;;;11.00;99.90;;;;;;5062099;28;19941;-83
2023/04/12 09:11:26;;;;;;;;;;;11.00;99.90;;;;;;5060688;28;19943;-83
2023/04/12 09:13:54;;;;;;;;;;;10.90;99.90;;;;;;5079214;28;19925;-83
2023/04/12 09:16:34;;;;;;;;;;;10.90;99.90;;;;;;5061958;28;20349;-84
2023/04/12 09:19:02;;;;;;;;;;;10.90;99.90;;;;;;5050010;28;20011;-84
2023/04/12 09:21:30;;;;;;;;;;;10.90;99.90;;;;;;5060312;28;19925;-84
2023/04/12 09:24:04;;;;;;;;;;;11.00;99.90;;;;;;5061069;28;19935;-84
2023/04/12 09:26:31;;;;;;;;;;;11.10;99.90;;;;;;5062519;28;20013;-84
2023/04/12 09:28:58;;;;;;;;;;;11.30;99.90;;;;;;5060503;28;19925;-84
2023/04/12 09:31:25;;;;;;;;;;;11.40;99.90;;;;;;5061003;28;20018;-83
2023/04/12 09:34:00;;;;;;;;;;;11.60;99.90;;;;;;5056381;28;20035;-84
2023/04/12 09:36:37;;;;;;;;;;;11.90;99.90;;;;;;5061083;28;19979;-83
2023/04/12 09:39:04;;;;;;;;;;;12.20;99.90;;;;;;5059656;28;19932;-84
2023/04/12 09:41:31;;;;;;;;;;;12.30;99.90;;;;;;5058806;28;20019;-83
2023/04/12 09:43:59;;;;;;;;;;;12.40;99.90;;;;;;5060322;28;20410;-84
2023/04/12 09:46:26;;;;;;;;;;;12.40;99.90;;;;;;5059998;28;19933;-83
2023/04/12 09:48:54;;;;;;;;;;;12.40;99.90;;;;;;5060482;28;19916;-84
2023/04/12 09:51:24;;;;;;;;;;;12.40;99.90;;;;;;5073979;28;19929;-84
2023/04/12 09:53:52;;;;;;;;;;;12.40;99.90;;;;;;5054126;28;19926;-83
2023/04/12 09:56:21;;;;;;;;;;;12.40;99.90;;;;;;5063281;28;19924;-84
2023/04/12 09:58:51;;;;;;;;;;;12.40;99.90;;;;;;5066294;28;20352;-84
2023/04/12 10:01:19;;;;;;;;;;;12.40;99.90;;;;;;5061751;28;19951;-84
2023/04/12 10:03:46;;;;;;;;;;;12.40;99.90;;;;;;5064222;28;19993;-83
2023/04/12 10:06:13;;;;;;;;;;;12.30;99.90;;;;;;5063571;28;19937;-85
2023/04/12 10:08:40;;;;;;;;;;;12.20;99.90;;;;;;5064335;28;19971;-84
2023/04/12 10:11:10;;;;;;;;;;;12.20;99.90;;;;;;5071751;28;19948;-84
2023/04/12 10:13:39;;;;;;;;;;;12.50;99.90;;;;;;5063431;28;19917;-84
2023/04/12 10:16:07;;;;;;;;;;;12.90;99.90;;;;;;5063157;28;20000;-84
2023/04/12 10:18:35;;;;;;;;;;;13.40;99.90;;;;;;5062581;28;19998;-84
2023/04/12 10:21:03;;;;;;;;;;;13.90;99.90;;;;;;5064802;28;19944;-83
2023/04/12 10:23:31;;;;;;;;;;;14.20;99.90;;;;;;5064404;28;19913;-84
2023/04/12 10:25:59;;;;;;;;;;;14.50;99.90;;;;;;5063015;28;19935;-84
2023/04/12 10:28:28;;;;;;;;;;;14.70;99.90;;;;;;5061872;28;20790;-82
2023/04/12 10:30:57;;;;;;;;;;;14.90;99.90;;;;;;5061124;28;19929;-83
2023/04/12 10:33:25;;;;;;;;;;;15.00;99.90;;;;;;5062062;28;19990;-85
2023/04/12 10:35:56;;;;;;;;;;;15.10;99.90;;;;;;5061575;28;19924;-85
2023/04/12 10:38:25;;;;;;;;;;;15.30;99.90;;;;;;5061422;28;19925;-81
2023/04/12 10:41:09;;;;;;;;;;;15.40;99.90;;;;;;5062930;28;19951;-80
2023/04/12 10:43:38;;;;;;;;;;;15.40;99.90;;;;;;5062885;28;19924;-80
2023/04/12 10:46:05;;;;;;;;;;;15.50;99.90;;;;;;5060619;28;20671;-79
2023/04/12 10:48:33;;;;;;;;;;;15.10;99.90;;;;;;5054527;28;19925;-79
2023/04/12 10:51:13;;;;;;;;;;;14.50;99.90;;;;;;5055349;28;19925;-78
2023/04/12 10:53:45;;;;;;;;;;;13.80;99.90;;;;;;5048347;28;20373;-79
2023/04/12 10:56:37;;;;;;;;;;;13.20;99.90;;;;;;5054829;28;19932;-78
2023/04/12 10:59:06;;;;;;;;;;;12.80;99.90;;;;;;5053841;28;20509;-78
2023/04/12 11:01:41;;;;;;;;;;;12.40;99.90;;;;;;5053812;28;19931;-79
2023/04/12 11:04:16;;;;;;;;;;;12.20;99.90;;;;;;5054379;28;20389;-78
2023/04/12 11:07:00;;;;;;;;;;;12.10;99.90;;;;;;5056961;28;19971;-77
2023/04/12 11:09:47;;;;;;;;;;;11.80;99.90;;;;;;5054924;28;19936;-78
2023/04/12 11:12:28;;;;;;;;;;;12.40;99.90;;;;;;5047236;28;19931;-78
2023/04/12 11:15:00;;;;;;;;;;;12.50;99.90;;;;;;5037422;28;19964;-78
2023/04/12 11:17:30;;;;;;;;;;;12.70;99.90;;;;;;5047346;28;19928;-78
2023/04/12 11:19:58;;;;;;;;;;;13.00;99.90;;;;;;5049564;28;19925;-77
2023/04/12 11:22:28;;;;;;;;;;;13.40;99.90;;;;;;5071165;28;19931;-78
2023/04/12 11:24:57;;;;;;;;;;;13.70;99.90;;;;;;5037399;28;19974;-78
2023/04/12 11:27:25;;;;;;;;;;;14.00;99.90;;;;;;5040554;28;19952;-79
2023/04/12 11:29:54;;;;;;;;;;;14.30;99.90;;;;;;5046622;28;19996;-78
2023/04/12 11:32:25;;;;;;;;;;;14.70;99.90;;;;;;5049376;28;19932;-78
2023/04/12 11:34:57;;;;;;;;;;;15.00;99.90;;;;;;5068820;28;20342;-80
2023/04/12 11:37:30;;;;;;;;;;;15.40;99.90;;;;;;5049157;28;20614;-79
2023/04/12 11:39:58;;;;;;;;;;;15.70;99.90;;;;;;5051158;28;19940;-80
2023/04/12 11:42:26;;;;;;;;;;;16.10;99.90;;;;;;5043393;28;20312;-79
2023/04/12 11:44:53;;;;;;;;;;;16.50;99.90;;;;;;5050344;28;19925;-78
2023/04/12 11:47:21;;;;;;;;;;;16.80;99.90;;;;;;5056016;28;19931;-78
2023/04/12 11:49:51;;;;;;;;;;;17.00;99.90;;;;;;5058354;28;19943;-78
2023/04/12 11:52:21;;;;;;;;;;;17.00;99.90;;;;;;5052088;28;20383;-78
2023/04/12 11:54:49;;;;;;;;;;;17.20;99.90;;;;;;5055859;28;20327;-79
2023/04/12 11:57:17;;;;;;;;;;;17.40;99.90;;;;;;5048055;28;19931;-79
2023/04/12 11:59:45;;;;;;;;;;;17.50;99.90;;;;;;5071941;28;19963;-79
2023/04/12 12:02:12;;;;;;;;;;;17.50;99.90;;;;;;5055148;28;19924;-79
2023/04/12 12:04:40;;;;;;;;;;;17.40;99.90;;;;;;5055132;28;19932;-79
2023/04/12 12:07:12;;;;;;;;;;;17.50;99.90;;;;;;5053287;28;19928;-79
2023/04/12 12:09:40;;;;;;;;;;;17.50;99.90;;;;;;5055751;28;20285;-76
2023/04/12 12:12:07;;;;;;;;;;;17.60;99.90;;;;;;5056758;28;19994;-76
2023/04/12 12:14:35;;;;;;;;;;;17.80;99.90;;;;;;5055632;28;20064;-77
2023/04/12 12:17:02;;;;;;;;;;;18.00;99.90;;;;;;5055391;28;19935;-76
2023/04/12 12:19:30;;;;;;;;;;;18.20;99.90;;;;;;5055566;28;20307;-76
2023/04/12 12:22:16;;;;;;;;;;;18.30;99.90;;;;;;5055844;28;19935;-77
2023/04/12 12:24:47;;;;;;;;;;;18.40;99.90;;;;;;5056772;28;19929;-76
2023/04/12 12:27:17;;;;;;;;;;;18.70;99.90;;;;;;5053674;28;20416;-78
2023/04/12 12:29:44;;;;;;;;;;;18.80;99.90;;;;;;5042217;28;19924;-77
2023/04/12 12:32:13;;;;;;;;;;;18.80;99.90;;;;;;5044783;28;19929;-78
2023/04/12 12:34:41;;;;;;;;;;;18.80;99.90;;;;;;5047466;28;19971;-78
2023/04/12 12:37:09;;;;;;;;;;;18.60;99.90;;;;;;5066653;28;19924;-77
2023/04/12 12:39:38;;;;;;;;;;;18.60;99.90;;;;;;5045496;28;20467;-78
2023/04/12 12:42:05;;;;;;;;;;;18.50;99.90;;;;;;5043094;28;19929;-77
2023/04/12 12:44:32;;;;;;;;;;;18.40;99.90;;;;;;5052206;28;19935;-78
2023/04/12 12:47:00;;;;;;;;;;;18.30;99.90;;;;;;5049474;28;19939;-78
2023/04/12 12:49:27;;;;;;;;;;;18.30;99.90;;;;;;5048462;28;19925;-78
2023/04/12 12:51:54;;;;;;;;;;;18.30;99.90;;;;;;5055605;28;19924;-79
2023/04/12 12:54:23;;;;;;;;;;;18.40;99.90;;;;;;5055860;28;20454;-78
2023/04/12 12:56:51;;;;;;;;;;;18.40;99.90;;;;;;5053712;28;20583;-79
2023/04/12 12:59:18;;;;;;;;;;;18.20;99.90;;;;;;5052692;28;20415;-79
2023/04/12 13:01:45;;;;;;;;;;;18.10;99.90;;;;;;5049625;28;20352;-78
2023/04/12 13:04:12;;;;;;;;;;;18.10;99.90;;;;;;5044638;28;19933;-78
2023/04/12 13:06:39;;;;;;;;;;;18.10;99.90;;;;;;5049943;28;19944;-78
2023/04/12 13:09:07;;;;;;;;;;;18.00;99.90;;;;;;5055054;28;19944;-78
2023/04/12 13:11:34;;;;;;;;;;;18.00;99.90;;;;;;5057884;28;19921;-78
2023/04/12 13:14:03;;;;;;;;;;;17.90;99.90;;;;;;5056810;28;20058;-78
2023/04/12 13:16:30;;;;;;;;;;;17.90;99.90;;;;;;5054536;28;19933;-77
2023/04/12 13:18:57;;;;;;;;;;;18.00;99.90;;;;;;5055007;28;19925;-78
2023/04/12 13:21:24;;;;;;;;;;;18.10;99.90;;;;;;5055401;28;20384;-78
2023/04/12 13:23:51;;;;;;;;;;;18.10;99.90;;;;;;5044412;28;19935;-79
2023/04/12 13:26:18;;;;;;;;;;;18.20;99.90;;;;;;5045024;28;20023;-78
2023/04/12 13:28:45;;;;;;;;;;;18.20;99.90;;;;;;5051754;28;19947;-78
2023/04/12 13:31:14;;;;;;;;;;;18.10;99.90;;;;;;5056546;28;19929;-78
2023/04/12 13:33:44;;;;;;;;;;;17.90;99.90;;;;;;5056308;28;20023;-82
2023/04/12 13:36:13;;;;;;;;;;;17.60;99.90;;;;;;5061064;28;19968;-82
2023/04/12 13:38:40;;;;;;;;;;;17.30;99.90;;;;;;5061931;28;20517;-83
2023/04/12 13:41:07;;;;;;;;;;;17.00;99.90;;;;;;5059994;28;19925;-82
2023/04/12 13:43:34;;;;;;;;;;;16.60;99.90;;;;;;5059891;28;19928;-82
2023/04/12 13:46:01;;;;;;;;;;;16.20;99.90;;;;;;5059660;28;19924;-82
2023/04/12 13:48:29;;;;;;;;;;;15.80;99.90;;;;;;5053505;28;19940;-82
2023/04/12 13:50:57;;;;;;;;;;;15.40;99.90;;;;;;5058258;28;19928;-82
2023/04/12 13:53:27;;;;;;;;;;;14.90;99.90;;;;;;5043984;28;20014;-83
2023/04/12 13:55:54;;;;;;;;;;;14.50;99.90;;;;;;5063621;28;19939;-83
2023/04/12 13:58:21;;;;;;;;;;;14.10;99.90;;;;;;5065348;28;20400;-83
2023/04/12 14:00:49;;;;;;;;;;;13.90;99.90;;;;;;5056843;28;19933;-82
2023/04/12 14:03:18;;;;;;;;;;;13.80;99.90;;;;;;5056171;28;19925;-82
2023/04/12 14:05:47;;;;;;;;;;;13.80;99.90;;;;;;5063589;28;19933;-82
2023/04/12 14:08:14;;;;;;;;;;;13.80;99.90;;;;;;5046515;28;19920;-83
2023/04/12 14:10:41;;;;;;;;;;;13.70;99.90;;;;;;5055160;28;19925;-82
2023/04/12 14:13:08;;;;;;;;;;;13.50;99.90;;;;;;5074291;28;19940;-82
2023/04/12 14:15:35;;;;;;;;;;;13.30;99.90;;;;;;5058837;28;19928;-82
2023/04/12 14:18:03;;;;;;;;;;;13.60;99.90;;;;;;5059556;28;19924;-83
2023/04/12 14:20:30;;;;;;;;;;;12.90;99.90;;;;;;5052909;28;19939;-78
2023/04/12 14:23:00;;;;;;;;;;;12.60;99.90;;;;;;5046449;28;20873;-81
2023/04/12 14:25:27;;;;;;;;;;;12.40;99.90;;;;;;5051676;28;19928;-78
2023/04/12 14:27:54;;;;;;;;;;;12.20;99.90;;;;;;5048897;28;19913;-80
2023/04/12 14:30:21;;;;;;;;;;;12.00;99.90;;;;;;5047037;28;20728;-79
2023/04/12 14:32:48;;;;;;;;;;;11.90;99.90;;;;;;5044544;28;19931;-75
2023/04/12 14:35:15;;;;;;;;;;;11.80;99.90;;;;;;5045057;28;20465;-79
2023/04/12 14:37:43;;;;;;;;;;;12.00;99.90;;;;;;5047577;28;20315;-80